Time;durP1;ratioP1;P1;durP2;ratioP2;P2;SDS_P1;SDS_P2;PMS_P1;PMS_P2;Temp;Humidity;BMP_temperature;BMP_pressure;BME280_temperature;BME280_humidity;BME280_pressure;Samples;Min_cycle;Max_cycle;Signal;HPM_P1;HPM_P2
2021/07/22 00:01:55;;;;;;;11.45;6.57;;;22.90;70.90;;;;;;5013486;28;20053;-68
2021/07/22 00:04:21;;;;;;;17.90;6.40;;;22.90;71.10;;;;;;5015552;28;20540;-68
2021/07/22 00:06:46;;;;;;;13.90;7.30;;;22.90;71.30;;;;;;5017374;28;20033;-68
2021/07/22 00:09:12;;;;;;;12.10;7.38;;;22.90;71.30;;;;;;5015505;28;20045;-68
2021/07/22 00:11:37;;;;;;;10.02;6.82;;;22.80;71.20;;;;;;5020249;28;20059;-68
2021/07/22 00:14:03;;;;;;;13.25;7.00;;;22.80;71.10;;;;;;5014375;28;20064;-68
2021/07/22 00:16:29;;;;;;;12.85;6.68;;;22.80;71.00;;;;;;5029908;28;20032;-68
2021/07/22 00:18:54;;;;;;;10.90;6.45;;;22.80;70.90;;;;;;5039797;28;20508;-67
2021/07/22 00:21:20;;;;;;;11.88;6.50;;;22.80;70.80;;;;;;5014707;28;20097;-68
2021/07/22 00:23:46;;;;;;;9.98;6.40;;;22.80;70.90;;;;;;5015439;28;20029;-68
2021/07/22 00:26:11;;;;;;;16.23;6.47;;;22.80;71.10;;;;;;5016275;28;20105;-68
2021/07/22 00:28:39;;;;;;;12.60;6.22;;;22.80;71.20;;;;;;5024439;28;20152;-68
2021/07/22 00:31:05;;;;;;;12.35;7.53;;;22.80;71.30;;;;;;5014083;28;20450;-68
2021/07/22 00:33:31;;;;;;;11.23;6.78;;;22.70;71.20;;;;;;5025739;28;20037;-67
2021/07/22 00:35:58;;;;;;;15.55;7.13;;;22.80;71.40;;;;;;5025392;28;20049;-68
2021/07/22 00:38:24;;;;;;;17.02;7.60;;;22.70;71.40;;;;;;5015476;28;20045;-68
2021/07/22 00:40:49;;;;;;;15.30;8.25;;;22.70;71.50;;;;;;5025513;28;20017;-68
2021/07/22 00:43:16;;;;;;;10.98;6.75;;;22.70;71.50;;;;;;5013160;28;20030;-68
2021/07/22 00:45:42;;;;;;;11.73;7.70;;;22.70;71.50;;;;;;5014935;28;20509;-68
2021/07/22 00:48:07;;;;;;;13.02;7.00;;;22.70;71.70;;;;;;5013521;28;20034;-68
2021/07/22 00:50:33;;;;;;;15.95;7.60;;;22.60;71.80;;;;;;5016664;28;20042;-68
2021/07/22 00:52:59;;;;;;;12.98;7.47;;;22.70;72.00;;;;;;5014371;28;20036;-68
2021/07/22 00:55:30;;;;;;;19.67;8.35;;;22.60;71.90;;;;;;5017006;28;20038;-68
2021/07/22 00:57:57;;;;;;;11.93;6.47;;;22.60;72.00;;;;;;5017536;28;20030;-68
2021/07/22 01:00:22;;;;;;;12.23;6.95;;;22.60;72.10;;;;;;5014308;28;20104;-68
2021/07/22 01:02:48;;;;;;;13.68;7.03;;;22.60;72.10;;;;;;5014896;28;20030;-68
2021/07/22 01:05:14;;;;;;;10.88;7.43;;;22.60;72.00;;;;;;5015429;28;20026;-68
2021/07/22 01:07:40;;;;;;;10.68;7.18;;;22.60;72.00;;;;;;5014965;28;20080;-68
2021/07/22 01:10:09;;;;;;;12.57;7.07;;;22.60;72.20;;;;;;5010923;28;20040;-68
2021/07/22 01:12:36;;;;;;;12.85;7.35;;;22.50;72.30;;;;;;5016189;28;20083;-68
2021/07/22 01:15:03;;;;;;;11.40;7.43;;;22.60;72.50;;;;;;5013764;28;20433;-68
2021/07/22 01:17:49;;;;;;;14.20;7.00;;;22.50;72.50;;;;;;5037581;28;20028;-68
2021/07/22 01:20:27;;;;;;;17.38;7.00;;;22.50;72.70;;;;;;5023760;28;20053;-68
2021/07/22 01:22:56;;;;;;;11.95;7.38;;;22.50;72.80;;;;;;5025527;28;20394;-68
2021/07/22 01:25:26;;;;;;;14.98;7.22;;;22.50;72.70;;;;;;5023495;28;20037;-68
2021/07/22 01:27:53;;;;;;;12.10;7.15;;;22.50;72.70;;;;;;5026031;28;20117;-68
2021/07/22 01:30:20;;;;;;;18.20;7.40;;;22.50;72.50;;;;;;5011976;28;20030;-68
2021/07/22 01:32:47;;;;;;;15.02;6.35;;;22.50;72.20;;;;;;5017120;28;20029;-68
2021/07/22 01:35:14;;;;;;;12.25;6.53;;;22.50;72.00;;;;;;5028859;28;20398;-68
2021/07/22 01:37:43;;;;;;;10.60;6.68;;;22.50;71.80;;;;;;5016934;28;20104;-68
2021/07/22 01:40:11;;;;;;;11.30;6.22;;;22.50;71.80;;;;;;5015958;28;20038;-68
2021/07/22 01:42:38;;;;;;;10.63;6.38;;;22.40;71.50;;;;;;5014632;28;20035;-68
2021/07/22 01:45:05;;;;;;;13.20;6.00;;;22.40;71.60;;;;;;5015087;28;20026;-68
2021/07/22 01:47:41;;;;;;;12.90;7.00;;;22.40;71.50;;;;;;5014869;28;20051;-68
2021/07/22 01:50:09;;;;;;;12.40;6.57;;;22.40;71.40;;;;;;5015336;28;20052;-68
2021/07/22 01:52:38;;;;;;;10.20;6.45;;;22.40;71.40;;;;;;5017973;28;20037;-68
2021/07/22 01:55:04;;;;;;;14.60;7.10;;;22.40;71.40;;;;;;5026905;28;20045;-68
2021/07/22 01:57:36;;;;;;;9.98;6.50;;;22.40;71.50;;;;;;5012727;28;20072;-68
2021/07/22 02:00:06;;;;;;;12.68;6.25;;;22.30;71.50;;;;;;5009775;28;20458;-68
2021/07/22 02:02:43;;;;;;;11.50;6.18;;;22.30;71.40;;;;;;5012915;28;20105;-67
2021/07/22 02:05:10;;;;;;;9.63;5.40;;;22.30;71.40;;;;;;5011766;28;20033;-68
2021/07/22 02:07:36;;;;;;;11.02;6.13;;;22.30;71.30;;;;;;5011492;28;20394;-68
2021/07/22 02:10:02;;;;;;;9.63;5.65;;;22.30;71.20;;;;;;5013423;28;20041;-67
2021/07/22 02:12:29;;;;;;;9.85;5.25;;;22.30;71.00;;;;;;5023502;28;20025;-68
2021/07/22 02:14:57;;;;;;;8.52;5.85;;;22.30;70.90;;;;;;5023014;28;20041;-68
2021/07/22 02:17:23;;;;;;;8.10;5.35;;;22.20;70.90;;;;;;5040696;28;20079;-68
2021/07/22 02:19:49;;;;;;;8.13;5.50;;;22.30;70.90;;;;;;5016945;28;20130;-68
2021/07/22 02:22:16;;;;;;;9.77;5.18;;;22.20;70.80;;;;;;5011512;28;20052;-68
2021/07/22 02:24:53;;;;;;;11.23;5.93;;;22.20;70.90;;;;;;5036027;28;20060;-68
2021/07/22 02:27:35;;;;;;;9.13;5.63;;;22.20;70.90;;;;;;5038300;28;20539;-68
2021/07/22 02:30:05;;;;;;;12.18;5.43;;;22.20;70.90;;;;;;5025172;28;20029;-68
2021/07/22 02:32:32;;;;;;;12.07;5.75;;;22.20;71.00;;;;;;5037055;28;20026;-68
2021/07/22 02:34:58;;;;;;;11.25;5.63;;;22.10;71.20;;;;;;5022540;28;20041;-68
2021/07/22 02:37:44;;;;;;;11.20;5.47;;;22.10;71.50;;;;;;5011678;28;20029;-68
2021/07/22 02:40:14;;;;;;;8.30;5.20;;;22.10;71.50;;;;;;5015378;28;20029;-68
2021/07/22 02:42:40;;;;;;;12.27;5.47;;;22.10;71.60;;;;;;5016843;28;20017;-68
2021/07/22 02:45:11;;;;;;;10.45;5.53;;;22.10;71.60;;;;;;5024437;28;20025;-68
2021/07/22 02:47:38;;;;;;;10.02;4.97;;;22.10;71.50;;;;;;5021368;28;20017;-68
2021/07/22 02:50:04;;;;;;;9.52;5.43;;;22.10;71.40;;;;;;5029097;28;20384;-68
2021/07/22 02:52:33;;;;;;;14.13;5.38;;;22.10;71.30;;;;;;5010736;28;20014;-68
2021/07/22 02:54:58;;;;;;;10.40;4.85;;;22.00;71.30;;;;;;5017347;28;20112;-68
2021/07/22 02:57:27;;;;;;;8.30;5.43;;;22.00;71.20;;;;;;5019939;28;20016;-68
2021/07/22 02:59:56;;;;;;;9.75;5.53;;;22.00;71.10;;;;;;5039398;28;20473;-67
2021/07/22 03:02:23;;;;;;;11.32;5.03;;;22.00;70.90;;;;;;5012079;28;20520;-68
2021/07/22 03:04:50;;;;;;;11.65;5.20;;;22.00;71.00;;;;;;5012448;28;20025;-67
2021/07/22 03:07:19;;;;;;;7.22;4.70;;;22.00;71.00;;;;;;5010437;28;20085;-68
2021/07/22 03:09:46;;;;;;;9.93;5.15;;;22.00;70.90;;;;;;5018181;28;20101;-68
2021/07/22 03:12:13;;;;;;;11.80;5.65;;;22.00;70.80;;;;;;5018254;28;20040;-68
2021/07/22 03:14:49;;;;;;;7.82;4.90;;;22.00;70.60;;;;;;5027398;28;20037;-68
2021/07/22 03:17:18;;;;;;;7.05;4.72;;;21.90;70.30;;;;;;5028078;28;20029;-68
2021/07/22 03:19:56;;;;;;;10.80;4.65;;;21.90;70.10;;;;;;5019321;28;20109;-68
2021/07/22 03:22:42;;;;;;;8.50;4.40;;;21.90;70.10;;;;;;5022697;28;20120;-68
2021/07/22 03:25:22;;;;;;;6.45;4.05;;;21.80;70.00;;;;;;5018901;28;20029;-68
2021/07/22 03:28:04;;;;;;;10.10;4.57;;;21.90;70.00;;;;;;5013607;28;20061;-68
2021/07/22 03:30:41;;;;;;;8.77;4.15;;;21.90;69.90;;;;;;5017874;28;20034;-68
2021/07/22 03:33:31;;;;;;;5.97;3.40;;;21.80;69.80;;;;;;5041580;28;20083;-68
2021/07/22 03:36:07;;;;;;;5.85;3.95;;;21.80;69.90;;;;;;5031159;28;20056;-68
2021/07/22 03:38:37;;;;;;;6.32;3.75;;;21.80;69.80;;;;;;5013209;28;20108;-68
2021/07/22 03:41:24;;;;;;;8.68;3.85;;;21.80;69.80;;;;;;5028903;28;20057;-68
2021/07/22 03:43:52;;;;;;;8.80;4.00;;;21.80;69.80;;;;;;5011856;28;20032;-68
2021/07/22 03:46:19;;;;;;;6.32;3.47;;;21.80;69.80;;;;;;5024801;28;20044;-68
2021/07/22 03:48:46;;;;;;;7.15;3.35;;;21.70;69.80;;;;;;5018258;28;20022;-68
2021/07/22 03:51:14;;;;;;;6.63;3.20;;;21.70;69.70;;;;;;5022004;28;20030;-68
2021/07/22 03:53:42;;;;;;;7.32;3.60;;;21.70;69.60;;;;;;5024341;28;20033;-69
2021/07/22 03:56:08;;;;;;;12.50;4.15;;;21.70;69.40;;;;;;5023950;28;20080;-69
2021/07/22 03:58:44;;;;;;;6.07;3.45;;;21.70;69.40;;;;;;5016906;28;20121;-68
2021/07/22 04:01:26;;;;;;;6.40;3.60;;;21.70;69.30;;;;;;5022412;28;20029;-68
2021/07/22 04:03:55;;;;;;;8.73;3.42;;;21.60;69.30;;;;;;5018579;28;20026;-68
2021/07/22 04:06:22;;;;;;;7.03;3.67;;;21.60;69.30;;;;;;5025002;28;20486;-68
2021/07/22 04:08:48;;;;;;;8.10;3.70;;;21.60;69.50;;;;;;5026561;28;20103;-68
2021/07/22 04:11:40;;;;;;;6.35;3.63;;;21.60;69.60;;;;;;5013907;28;20025;-67
2021/07/22 04:14:24;;;;;;;10.93;3.63;;;21.60;69.70;;;;;;5016486;28;20121;-67
2021/07/22 04:17:14;;;;;;;10.32;3.67;;;21.50;69.70;;;;;;5022055;28;20068;-68
2021/07/22 04:20:13;;;;;;;5.88;3.40;;;21.50;69.80;;;;;;5005777;28;20121;-68
2021/07/22 04:22:49;;;;;;;7.82;4.10;;;21.50;69.90;;;;;;5010635;28;20053;-68
2021/07/22 04:25:25;;;;;;;6.32;3.55;;;21.50;70.10;;;;;;5014155;28;20030;-68
2021/07/22 04:28:03;;;;;;;8.38;3.58;;;21.50;70.10;;;;;;5019856;28;20057;-68
2021/07/22 04:30:36;;;;;;;9.60;4.03;;;21.50;70.20;;;;;;5017903;28;20068;-68
2021/07/22 04:33:27;;;;;;;;;;;21.40;70.40;;;;;;5006415;28;20107;-68
2021/07/22 04:35:56;;;;;;;12.55;4.18;;;21.40;70.40;;;;;;5022865;28;19909;-68
2021/07/22 04:38:54;;;;;;;15.30;3.78;;;21.40;70.70;;;;;;5027321;28;20420;-68
2021/07/22 04:41:38;;;;;;;11.23;3.35;;;21.40;71.00;;;;;;5021217;28;20053;-68
2021/07/22 04:44:26;;;;;;;7.28;3.17;;;21.40;71.40;;;;;;5022535;28;20139;-68
2021/07/22 04:46:55;;;;;;;10.68;3.45;;;21.30;71.40;;;;;;5020564;28;20037;-68
2021/07/22 04:49:36;;;;;;;10.80;3.20;;;21.30;71.50;;;;;;5023066;28;20076;-68
2021/07/22 04:52:17;;;;;;;9.05;3.22;;;21.30;71.30;;;;;;5017898;28;20433;-68
2021/07/22 04:54:58;;;;;;;8.57;3.90;;;21.30;71.50;;;;;;5013053;28;20378;-68
2021/07/22 04:57:26;;;;;;;7.88;3.13;;;21.30;71.90;;;;;;5020237;28;20117;-68
2021/07/22 04:59:52;;;;;;;6.32;3.40;;;21.30;71.90;;;;;;5020426;28;20140;-67
2021/07/22 05:02:19;;;;;;;6.45;3.20;;;21.20;71.70;;;;;;5011772;28;20037;-68
2021/07/22 05:04:46;;;;;;;6.25;3.58;;;21.20;71.70;;;;;;5015578;28;20141;-68
2021/07/22 05:07:12;;;;;;;7.03;3.92;;;21.30;71.70;;;;;;5014066;28;20026;-68
2021/07/22 05:09:45;;;;;;;11.93;3.65;;;21.20;71.50;;;;;;5013889;28;20390;-67
2021/07/22 05:12:39;;;;;;;12.30;4.53;;;21.30;71.60;;;;;;5000363;28;20076;-67
2021/07/22 05:15:34;;;;;;;6.38;3.50;;;21.30;71.70;;;;;;5011435;28;20103;-68
2021/07/22 05:18:07;;;;;;;7.50;3.95;;;21.30;71.70;;;;;;5013575;28;20033;-68
2021/07/22 05:20:51;;;;;;;10.35;3.80;;;21.30;71.80;;;;;;5013984;28;20548;-68
2021/07/22 05:23:41;;;;;;;8.30;3.55;;;21.30;72.00;;;;;;5012215;28;20026;-68
2021/07/22 05:26:25;;;;;;;5.07;3.15;;;21.30;71.80;;;;;;5012501;28;20033;-68
2021/07/22 05:29:10;;;;;;;7.68;3.38;;;21.30;71.30;;;;;;5013158;28;20038;-68
2021/07/22 05:31:56;;;;;;;10.65;3.83;;;21.30;71.30;;;;;;5021948;28;20033;-68
2021/07/22 05:34:35;;;;;;;6.95;3.90;;;21.30;70.80;;;;;;5021076;28;20041;-68
2021/07/22 05:37:12;;;;;;;9.02;3.60;;;21.30;70.50;;;;;;5026748;28;20030;-68
2021/07/22 05:39:43;;;;;;;5.60;3.42;;;21.30;70.50;;;;;;5029088;28;20485;-68
2021/07/22 05:42:08;;;;;;;5.72;3.60;;;21.30;70.70;;;;;;5025615;28;20076;-67
2021/07/22 05:44:34;;;;;;;8.40;3.60;;;21.30;70.60;;;;;;5014746;28;20030;-67
2021/07/22 05:47:00;;;;;;;8.85;3.78;;;21.30;70.70;;;;;;5017335;28;20033;-67
2021/07/22 05:49:25;;;;;;;7.95;3.95;;;21.30;70.80;;;;;;5015334;28;20397;-68
2021/07/22 05:51:51;;;;;;;7.15;3.90;;;21.30;71.00;;;;;;5017578;28;20026;-67
2021/07/22 05:54:16;;;;;;;7.03;4.60;;;21.30;70.90;;;;;;5013485;28;20053;-68
2021/07/22 05:56:43;;;;;;;12.23;4.53;;;21.30;70.70;;;;;;5013003;28;20069;-71
2021/07/22 05:59:09;;;;;;;8.52;4.82;;;21.40;71.40;;;;;;5014814;28;20034;-68
2021/07/22 06:01:36;;;;;;;8.98;4.47;;;21.40;70.70;;;;;;5017879;28;20029;-68
2021/07/22 06:04:02;;;;;;;11.15;4.93;;;21.40;70.70;;;;;;5012393;28;20042;-68
2021/07/22 06:06:27;;;;;;;9.80;4.70;;;21.40;70.40;;;;;;5013211;28;20386;-68
2021/07/22 06:08:54;;;;;;;8.10;4.40;;;21.40;70.20;;;;;;5016183;28;20387;-68
2021/07/22 06:11:20;;;;;;;5.82;3.90;;;21.40;70.20;;;;;;5016342;28;20026;-67
2021/07/22 06:13:45;;;;;;;8.45;3.42;;;21.40;70.50;;;;;;5014709;28;20034;-68
2021/07/22 06:16:15;;;;;;;5.70;3.05;;;21.50;70.20;;;;;;5017229;28;20022;-70
2021/07/22 06:18:42;;;;;;;6.00;3.20;;;21.50;70.60;;;;;;5012956;28;20030;-70
2021/07/22 06:21:13;;;;;;;4.65;2.70;;;21.50;70.70;;;;;;5012514;28;20037;-70
2021/07/22 06:23:39;;;;;;;4.68;2.75;;;21.50;70.80;;;;;;5025151;28;20389;-70
2021/07/22 06:26:04;;;;;;;5.38;2.55;;;21.50;71.40;;;;;;5015267;28;20045;-70
2021/07/22 06:28:30;;;;;;;6.05;2.53;;;21.50;71.80;;;;;;5012448;28;20104;-69
2021/07/22 06:30:56;;;;;;;5.45;2.80;;;21.50;71.80;;;;;;5014570;28;20046;-70
2021/07/22 06:33:22;;;;;;;5.10;3.20;;;21.40;71.50;;;;;;5013241;28;20036;-69
2021/07/22 06:35:48;;;;;;;4.07;2.78;;;21.40;71.30;;;;;;5022555;28;20033;-69
2021/07/22 06:38:14;;;;;;;5.60;2.50;;;21.40;71.40;;;;;;5032232;28;20037;-70
2021/07/22 06:40:41;;;;;;;4.40;2.40;;;21.40;71.60;;;;;;5030350;28;21520;-70
2021/07/22 06:43:08;;;;;;;5.03;2.60;;;21.40;71.50;;;;;;5031184;28;20037;-70
2021/07/22 06:45:43;;;;;;;4.55;2.30;;;21.40;71.80;;;;;;5026327;28;20041;-70
2021/07/22 06:48:09;;;;;;;6.85;2.30;;;21.40;71.20;;;;;;5024449;28;20393;-71
2021/07/22 06:50:36;;;;;;;6.28;2.13;;;21.40;71.70;;;;;;5024331;28;20040;-69
2021/07/22 06:53:05;;;;;;;5.72;2.25;;;21.40;72.10;;;;;;5013454;28;20037;-69
2021/07/22 06:55:32;;;;;;;9.43;2.58;;;21.40;72.00;;;;;;5018152;28;20486;-69
2021/07/22 06:58:08;;;;;;;4.28;2.45;;;21.40;71.80;;;;;;5011050;28;20029;-71
2021/07/22 07:00:35;;;;;;;9.85;2.55;;;21.40;71.70;;;;;;5013379;28;20484;-71
2021/07/22 07:03:02;;;;;;;6.15;2.15;;;21.40;71.70;;;;;;5011240;28;20025;-68
2021/07/22 07:05:29;;;;;;;5.25;2.72;;;21.40;69.90;;;;;;5011246;28;20034;-67
2021/07/22 07:07:55;;;;;;;8.52;2.67;;;21.40;69.40;;;;;;5010372;28;20097;-68
2021/07/22 07:10:21;;;;;;;6.05;2.10;;;21.40;69.00;;;;;;5012674;28;20101;-68
2021/07/22 07:12:46;;;;;;;5.60;2.97;;;21.40;68.60;;;;;;5015253;28;20176;-68
2021/07/22 07:15:12;;;;;;;5.63;3.10;;;21.40;67.80;;;;;;5015541;28;20041;-68
2021/07/22 07:17:38;;;;;;;5.55;2.80;;;21.40;67.90;;;;;;5017388;28;20049;-71
2021/07/22 07:20:04;;;;;;;7.25;2.58;;;21.40;66.90;;;;;;5023449;28;20061;-71
2021/07/22 07:22:29;;;;;;;2.67;1.98;;;21.40;67.00;;;;;;5022590;28;20033;-69
2021/07/22 07:24:55;;;;;;;4.18;2.33;;;21.40;66.80;;;;;;5017291;28;20040;-69
2021/07/22 07:27:20;;;;;;;5.60;2.88;;;21.50;66.50;;;;;;5017591;28;20018;-68
2021/07/22 07:29:46;;;;;;;5.00;2.10;;;21.60;66.80;;;;;;5024419;28;20029;-68
2021/07/22 07:32:12;;;;;;;4.63;2.30;;;21.50;65.80;;;;;;5031945;28;20021;-67
2021/07/22 07:34:38;;;;;;;5.35;2.50;;;21.60;66.10;;;;;;5030727;28;20040;-68
2021/07/22 07:37:03;;;;;;;4.38;2.45;;;21.60;65.70;;;;;;5028306;28;20025;-68
2021/07/22 07:39:29;;;;;;;9.60;2.72;;;21.60;65.90;;;;;;5022345;28;20497;-67
2021/07/22 07:41:55;;;;;;;5.75;2.70;;;21.60;65.50;;;;;;5030401;28;20116;-70
2021/07/22 07:44:20;;;;;;;5.05;2.28;;;21.60;65.50;;;;;;5025928;28;20029;-69
2021/07/22 07:46:46;;;;;;;4.50;2.25;;;21.60;65.10;;;;;;5028275;28;20396;-69
2021/07/22 07:49:11;;;;;;;5.18;2.53;;;21.70;64.90;;;;;;5027593;28;20469;-69
2021/07/22 07:51:37;;;;;;;3.63;2.22;;;21.70;65.50;;;;;;5026473;28;20025;-69
2021/07/22 07:54:05;;;;;;;8.70;3.20;;;21.70;65.20;;;;;;5023112;28;20046;-70
2021/07/22 07:56:31;;;;;;;5.78;2.88;;;21.70;64.90;;;;;;5026115;28;20117;-70
2021/07/22 07:58:57;;;;;;;4.60;2.78;;;21.80;64.70;;;;;;5022892;28;20120;-70
2021/07/22 08:01:25;;;;;;;6.28;2.10;;;21.80;64.20;;;;;;5029711;28;20022;-70
2021/07/22 08:03:51;;;;;;;4.72;2.10;;;21.90;63.10;;;;;;5026005;28;20047;-68
2021/07/22 08:06:17;;;;;;;5.78;2.33;;;21.90;64.60;;;;;;5020347;28;20557;-70
2021/07/22 08:08:42;;;;;;;4.93;2.30;;;21.90;65.60;;;;;;5025957;28;20119;-71
2021/07/22 08:11:08;;;;;;;3.75;2.08;;;22.00;66.30;;;;;;5015564;28;20478;-68
2021/07/22 08:13:34;;;;;;;7.10;2.10;;;22.00;66.00;;;;;;5016040;28;20563;-68
2021/07/22 08:15:59;;;;;;;4.15;2.10;;;22.00;65.30;;;;;;5016000;28;20113;-68
2021/07/22 08:18:25;;;;;;;3.22;1.90;;;22.00;64.70;;;;;;5016352;28;20547;-67
2021/07/22 08:20:51;;;;;;;10.50;2.70;;;22.10;64.50;;;;;;5021176;28;20034;-68
2021/07/22 08:23:25;;;;;;;2.83;2.00;;;22.10;64.40;;;;;;5016177;28;20029;-68
2021/07/22 08:25:51;;;;;;;5.88;2.00;;;22.10;64.50;;;;;;5015420;28;20026;-68
2021/07/22 08:28:20;;;;;;;7.50;2.10;;;22.10;64.50;;;;;;5014522;28;20033;-68
2021/07/22 08:30:46;;;;;;;2.30;1.70;;;22.10;64.00;;;;;;5027690;28;20033;-68
2021/07/22 08:33:11;;;;;;;22.77;2.50;;;22.10;63.40;;;;;;5018975;28;20029;-68
2021/07/22 08:35:37;;;;;;;9.25;2.22;;;22.10;63.10;;;;;;5034534;28;20045;-68
2021/07/22 08:38:02;;;;;;;3.55;2.05;;;22.10;63.50;;;;;;5019877;28;20034;-68
2021/07/22 08:40:28;;;;;;;4.28;1.90;;;22.10;63.10;;;;;;5029119;28;20035;-68
2021/07/22 08:43:01;;;;;;;4.93;2.20;;;22.10;62.70;;;;;;5021516;28;20030;-68
2021/07/22 08:45:27;;;;;;;;;;;22.20;63.00;;;;;;5016446;28;20097;-68
2021/07/22 08:47:53;;;;;;;2.75;1.85;;;22.20;65.00;;;;;;5024247;28;19963;-68
2021/07/22 08:50:19;;;;;;;6.18;2.20;;;22.20;65.20;;;;;;5016434;28;20030;-68
2021/07/22 08:52:47;;;;;;;3.60;1.60;;;22.20;65.10;;;;;;5032726;28;20095;-68
2021/07/22 08:55:13;;;;;;;3.90;1.95;;;22.20;65.20;;;;;;5025818;28;20045;-68
2021/07/22 08:57:40;;;;;;;3.45;1.90;;;22.20;64.80;;;;;;5013694;28;20041;-68
2021/07/22 09:00:07;;;;;;;4.93;1.95;;;22.20;64.50;;;;;;5016104;28;20449;-68
2021/07/22 09:02:36;;;;;;;4.45;1.90;;;22.30;63.60;;;;;;5017189;28;20053;-68
2021/07/22 09:05:04;;;;;;;7.85;2.15;;;22.30;62.20;;;;;;5015654;28;20084;-68
2021/07/22 09:07:31;;;;;;;5.30;2.70;;;22.30;62.90;;;;;;5015688;28;20038;-68
2021/07/22 09:10:08;;;;;;;4.75;2.58;;;22.30;62.40;;;;;;5013728;28;20069;-68
2021/07/22 09:12:35;;;;;;;5.05;2.83;;;22.30;62.10;;;;;;5016186;28;20022;-68
2021/07/22 09:15:00;;;;;;;7.20;2.92;;;22.40;62.40;;;;;;5014117;28;20478;-68
2021/07/22 09:17:27;;;;;;;8.70;2.40;;;22.40;62.20;;;;;;5018644;28;20030;-68
2021/07/22 09:19:55;;;;;;;4.78;2.05;;;22.30;60.90;;;;;;5026541;28;20092;-68
2021/07/22 09:22:40;;;;;;;3.45;2.35;;;22.40;61.80;;;;;;5015586;28;20026;-68
2021/07/22 09:25:06;;;;;;;5.95;2.33;;;22.40;60.50;;;;;;5014338;28;20030;-68
2021/07/22 09:27:39;;;;;;;6.55;2.70;;;22.40;59.50;;;;;;5014899;28;21449;-72
2021/07/22 09:30:12;;;;;;;2.50;1.90;;;22.50;61.00;;;;;;5016607;28;20378;-72
2021/07/22 09:32:41;;;;;;;4.93;1.88;;;22.40;62.20;;;;;;5035197;28;20048;-74
2021/07/22 09:35:15;;;;;;;3.97;2.10;;;22.50;63.10;;;;;;5014927;28;20128;-70
2021/07/22 09:37:52;;;;;;;4.35;2.60;;;22.50;63.10;;;;;;5025599;28;20039;-70
2021/07/22 09:40:32;;;;;;;5.45;2.45;;;22.50;62.80;;;;;;5020741;28;20508;-70
2021/07/22 09:42:57;;;;;;;6.07;2.80;;;22.50;62.70;;;;;;5012727;28;20040;-70
2021/07/22 09:45:26;;;;;;;9.10;2.92;;;22.60;62.90;;;;;;5022172;28;20125;-70
2021/07/22 09:47:54;;;;;;;10.10;3.53;;;22.60;64.30;;;;;;5022004;28;20037;-69
2021/07/22 09:50:22;;;;;;;5.88;2.47;;;22.70;66.10;;;;;;5013165;28;20497;-69
2021/07/22 09:53:04;;;;;;;3.28;2.10;;;22.70;65.70;;;;;;5022826;28;20430;-69
2021/07/22 09:55:31;;;;;;;5.95;2.47;;;22.80;65.20;;;;;;5021928;28;20057;-70
2021/07/22 09:58:02;;;;;;;4.15;2.42;;;22.80;63.50;;;;;;5012500;28;20037;-70
2021/07/22 10:00:29;;;;;;;4.63;2.35;;;22.80;63.10;;;;;;5018168;28;20101;-69
2021/07/22 10:02:58;;;;;;;3.22;2.25;;;22.80;63.70;;;;;;5018009;28;20045;-70
2021/07/22 10:05:27;;;;;;;3.03;1.73;;;22.80;63.50;;;;;;5015331;28;20104;-70
2021/07/22 10:07:55;;;;;;;6.57;2.25;;;22.80;64.50;;;;;;5012675;28;20030;-69
2021/07/22 10:10:31;;;;;;;2.63;1.70;;;22.90;64.50;;;;;;5100802;27;20105;-70
2021/07/22 10:12:59;;;;;;;4.55;2.40;;;22.80;64.30;;;;;;5106851;28;20457;-70
2021/07/22 10:15:27;;;;;;;4.35;1.92;;;22.80;63.70;;;;;;5105596;28;20084;-69
2021/07/22 10:17:58;;;;;;;3.28;1.90;;;22.90;62.60;;;;;;5102224;28;20085;-70
2021/07/22 10:20:33;;;;;;;8.38;2.17;;;22.90;63.60;;;;;;5108472;28;20077;-74
2021/07/22 10:22:59;;;;;;;3.80;2.22;;;22.90;65.70;;;;;;5107203;28;20462;-69
2021/07/22 10:25:26;;;;;;;5.47;2.08;;;22.90;65.10;;;;;;5107228;28;20061;-75
2021/07/22 10:27:57;;;;;;;6.13;2.30;;;23.00;65.60;;;;;;5108255;28;20073;-78
2021/07/22 10:30:24;;;;;;;3.17;2.20;;;22.90;65.20;;;;;;5105748;28;20088;-72
2021/07/22 10:32:53;;;;;;;9.43;2.13;;;22.90;64.60;;;;;;5105675;28;20020;-72
2021/07/22 10:35:23;;;;;;;4.13;2.33;;;23.00;64.40;;;;;;5106427;28;20119;-70
2021/07/22 10:38:01;;;;;;;2.38;1.88;;;23.00;64.10;;;;;;5104605;28;20020;-69
2021/07/22 10:40:52;;;;;;;3.33;1.80;;;23.00;63.60;;;;;;5106969;28;20066;-69
2021/07/22 10:43:39;;;;;;;3.05;1.75;;;23.00;64.60;;;;;;5105234;28;20047;-69
2021/07/22 10:46:16;;;;;;;3.47;1.77;;;23.00;63.80;;;;;;5106319;28;20078;-69
2021/07/22 10:48:43;;;;;;;4.25;1.88;;;23.10;63.50;;;;;;5102589;28;20078;-69
2021/07/22 10:51:11;;;;;;;15.60;2.33;;;23.00;62.80;;;;;;5103250;28;20039;-69
2021/07/22 10:53:41;;;;;;;6.55;2.85;;;23.10;63.50;;;;;;5104760;28;20031;-69
2021/07/22 10:56:15;;;;;;;3.83;2.17;;;23.20;63.80;;;;;;5098740;28;20028;-69
2021/07/22 10:58:40;;;;;;;4.95;2.30;;;23.20;65.00;;;;;;5096960;28;20108;-69
2021/07/22 11:01:07;;;;;;;2.85;1.50;;;23.20;63.00;;;;;;5108526;28;20063;-72
2021/07/22 11:03:36;;;;;;;4.72;1.80;;;23.20;62.80;;;;;;5095588;28;20043;-68
2021/07/22 11:06:11;;;;;;;5.07;1.80;;;23.20;62.70;;;;;;5101791;28;20490;-66
2021/07/22 11:08:42;;;;;;;4.38;1.95;;;23.20;64.10;;;;;;5104115;28;20095;-66
2021/07/22 11:11:09;;;;;;;4.70;2.00;;;23.20;64.00;;;;;;5109313;28;20478;-69
2021/07/22 11:13:38;;;;;;;3.60;1.80;;;23.20;62.80;;;;;;5107597;28;20525;-71
2021/07/22 11:16:19;;;;;;;6.13;2.00;;;23.20;60.60;;;;;;5102784;28;20035;-71
2021/07/22 11:18:59;;;;;;;1.88;1.58;;;23.20;61.00;;;;;;5107877;28;20051;-71
2021/07/22 11:21:30;;;;;;;5.57;1.73;;;23.20;63.60;;;;;;5093212;28;20040;-71
2021/07/22 11:24:01;;;;;;;2.10;1.77;;;23.30;64.30;;;;;;5089380;28;20050;-71
2021/07/22 11:26:51;;;;;;;2.45;1.80;;;23.30;65.20;;;;;;5088595;28;20047;-68
2021/07/22 11:29:17;;;;;;;5.13;2.47;;;23.40;64.00;;;;;;5089457;28;20430;-68
2021/07/22 11:31:46;;;;;;;6.15;1.70;;;23.40;64.10;;;;;;5085565;28;20025;-68
2021/07/22 11:34:24;;;;;;;6.72;1.70;;;23.40;64.70;;;;;;5084989;28;20028;-67
2021/07/22 11:36:54;;;;;;;3.75;1.75;;;23.40;63.50;;;;;;5091752;28;20465;-68
2021/07/22 11:39:52;;;;;;;2.55;1.70;;;23.40;65.20;;;;;;5095112;28;20432;-68
2021/07/22 11:42:17;;;;;;;4.28;2.10;;;23.40;65.40;;;;;;5055104;28;20071;-68
2021/07/22 11:44:43;;;;;;;1.63;1.52;;;23.40;64.00;;;;;;5092887;28;20067;-68
2021/07/22 11:47:15;;;;;;;3.17;1.63;;;23.50;64.80;;;;;;5093280;28;20051;-68
2021/07/22 11:49:41;;;;;;;3.85;1.60;;;23.50;63.20;;;;;;5089884;28;20486;-68
2021/07/22 11:52:07;;;;;;;1.50;1.40;;;23.50;63.90;;;;;;5090280;28;20143;-68
2021/07/22 11:54:33;;;;;;;4.85;1.90;;;23.50;64.00;;;;;;5092304;28;20118;-68
2021/07/22 11:56:59;;;;;;;4.45;1.80;;;23.50;63.30;;;;;;5089605;28;20028;-68
2021/07/22 11:59:29;;;;;;;5.72;2.00;;;23.50;63.30;;;;;;5090715;28;20085;-70
2021/07/22 12:01:57;;;;;;;6.65;1.60;;;23.50;63.20;;;;;;5093616;28;20036;-71
2021/07/22 12:04:26;;;;;;;4.03;1.80;;;23.40;63.90;;;;;;5077418;28;20119;-70
2021/07/22 12:06:53;;;;;;;6.70;2.10;;;23.60;63.60;;;;;;5093926;28;20021;-70
2021/07/22 12:09:19;;;;;;;2.53;1.85;;;23.50;63.60;;;;;;5089826;28;20127;-70
2021/07/22 12:11:52;;;;;;;5.30;2.17;;;23.50;65.00;;;;;;5092453;28;20123;-70
2021/07/22 12:14:32;;;;;;;3.28;1.92;;;23.60;64.20;;;;;;5091379;28;20024;-70
2021/07/22 12:17:03;;;;;;;3.95;2.10;;;23.70;63.20;;;;;;5092636;28;20481;-70
2021/07/22 12:19:31;;;;;;;5.50;1.80;;;23.60;63.30;;;;;;5091673;28;20111;-70
2021/07/22 12:22:29;;;;;;;3.70;1.90;;;23.70;64.10;;;;;;5087980;28;20043;-70
2021/07/22 12:25:01;;;;;;;3.80;1.95;;;23.70;65.40;;;;;;5086324;28;20088;-70
2021/07/22 12:27:35;;;;;;;5.10;2.20;;;23.70;65.20;;;;;;5087949;28;20111;-70
2021/07/22 12:30:04;;;;;;;2.83;1.98;;;23.70;64.80;;;;;;5090404;28;20055;-73
2021/07/22 12:32:30;;;;;;;9.02;2.42;;;23.70;62.30;;;;;;5084738;28;20023;-70
2021/07/22 12:34:57;;;;;;;3.10;1.85;;;23.60;62.50;;;;;;5092671;28;20032;-68
2021/07/22 12:37:57;;;;;;;3.05;1.75;;;23.70;62.70;;;;;;5093079;28;20085;-66
2021/07/22 12:40:39;;;;;;;4.72;2.00;;;23.70;62.20;;;;;;5085151;28;20162;-66
2021/07/22 12:43:07;;;;;;;6.30;1.65;;;23.70;64.40;;;;;;5088523;28;20108;-66
2021/07/22 12:45:33;;;;;;;5.32;2.22;;;23.70;65.10;;;;;;5093355;28;20058;-66
2021/07/22 12:47:59;;;;;;;3.92;1.90;;;23.70;65.20;;;;;;5092654;28;20024;-66
2021/07/22 12:50:35;;;;;;;2.20;1.70;;;23.70;64.90;;;;;;5092498;28;20479;-66
2021/07/22 12:53:03;;;;;;;7.35;1.90;;;23.70;64.00;;;;;;5090227;28;20077;-66
2021/07/22 12:55:39;;;;;;;3.88;2.13;;;23.70;64.00;;;;;;5092608;28;20036;-67
2021/07/22 12:58:07;;;;;;;2.80;1.60;;;23.70;63.40;;;;;;5091768;28;20050;-66
2021/07/22 13:00:43;;;;;;;2.38;1.80;;;23.70;65.10;;;;;;5078361;28;20040;-67
2021/07/22 13:03:11;;;;;;;7.80;2.38;;;23.70;64.40;;;;;;5078595;28;20031;-66